sensor_id;sensor_type;location;lat;lon;timestamp;temperature;humidity
22795;DHT22;11564;50.920;11.612;2023-01-30T00:01:44;-1.70;99.90
22795;DHT22;11564;50.920;11.612;2023-01-30T00:04:10;-1.70;99.90
22795;DHT22;11564;50.920;11.612;2023-01-30T00:06:42;-1.70;99.90
22795;DHT22;11564;50.920;11.612;2023-01-30T00:09:11;-1.50;99.90
22795;DHT22;11564;50.920;11.612;2023-01-30T00:11:38;-1.50;99.90
22795;DHT22;11564;50.920;11.612;2023-01-30T00:14:03;-1.40;99.90
22795;DHT22;11564;50.920;11.612;2023-01-30T00:16:29;-1.30;99.90
22795;DHT22;11564;50.920;11.612;2023-01-30T00:18:55;-1.30;99.90
22795;DHT22;11564;50.920;11.612;2023-01-30T00:21:20;-1.20;99.90
22795;DHT22;11564;50.920;11.612;2023-01-30T00:23:46;-1.20;99.90
22795;DHT22;11564;50.920;11.612;2023-01-30T00:26:12;-1.20;99.90
22795;DHT22;11564;50.920;11.612;2023-01-30T00:28:38;-1.20;99.90
22795;DHT22;11564;50.920;11.612;2023-01-30T00:31:04;-1.10;99.90
22795;DHT22;11564;50.920;11.612;2023-01-30T00:33:30;-1.10;99.90
22795;DHT22;11564;50.920;11.612;2023-01-30T00:35:56;-1.00;99.90
22795;DHT22;11564;50.920;11.612;2023-01-30T00:38:22;-1.10;99.90
22795;DHT22;11564;50.920;11.612;2023-01-30T00:40:48;-1.00;99.90
22795;DHT22;11564;50.920;11.612;2023-01-30T00:43:16;-1.00;99.90
22795;DHT22;11564;50.920;11.612;2023-01-30T00:46:29;-1.00;99.90
22795;DHT22;11564;50.920;11.612;2023-01-30T00:49:12;-1.00;99.90
22795;DHT22;11564;50.920;11.612;2023-01-30T00:51:38;-1.00;99.90
22795;DHT22;11564;50.920;11.612;2023-01-30T00:54:03;-1.00;99.90
22795;DHT22;11564;50.920;11.612;2023-01-30T00:56:29;-1.00;99.90
22795;DHT22;11564;50.920;11.612;2023-01-30T00:58:55;-0.80;99.90
22795;DHT22;11564;50.920;11.612;2023-01-30T01:01:20;-0.80;99.90
22795;DHT22;11564;50.920;11.612;2023-01-30T01:03:46;-0.80;99.90
22795;DHT22;11564;50.920;11.612;2023-01-30T01:06:11;-0.70;99.90
22795;DHT22;11564;50.920;11.612;2023-01-30T01:08:37;-0.70;99.90
22795;DHT22;11564;50.920;11.612;2023-01-30T01:11:03;-0.70;99.90
22795;DHT22;11564;50.920;11.612;2023-01-30T01:13:28;-0.90;99.90
22795;DHT22;11564;50.920;11.612;2023-01-30T01:15:54;-0.90;99.90
22795;DHT22;11564;50.920;11.612;2023-01-30T01:18:20;-0.90;99.90
22795;DHT22;11564;50.920;11.612;2023-01-30T01:20:45;-0.80;99.90
22795;DHT22;11564;50.920;11.612;2023-01-30T01:23:11;-0.90;99.90
22795;DHT22;11564;50.920;11.612;2023-01-30T01:25:37;-0.80;99.90
22795;DHT22;11564;50.920;11.612;2023-01-30T01:28:03;-0.80;99.90
22795;DHT22;11564;50.920;11.612;2023-01-30T01:30:28;-0.90;99.90
22795;DHT22;11564;50.920;11.612;2023-01-30T01:32:55;-0.80;99.90
22795;DHT22;11564;50.920;11.612;2023-01-30T01:35:21;-0.70;99.90
22795;DHT22;11564;50.920;11.612;2023-01-30T01:37:47;-0.60;99.90
22795;DHT22;11564;50.920;11.612;2023-01-30T01:40:18;-0.60;99.90
22795;DHT22;11564;50.920;11.612;2023-01-30T01:43:15;-0.60;99.90
22795;DHT22;11564;50.920;11.612;2023-01-30T01:45:42;-0.40;99.90
22795;DHT22;11564;50.920;11.612;2023-01-30T01:48:15;-0.40;99.90
22795;DHT22;11564;50.920;11.612;2023-01-30T01:50:54;-0.40;99.90
22795;DHT22;11564;50.920;11.612;2023-01-30T01:53:25;-0.30;99.90
22795;DHT22;11564;50.920;11.612;2023-01-30T01:55:53;-0.30;99.90
22795;DHT22;11564;50.920;11.612;2023-01-30T01:58:34;-0.30;99.90
22795;DHT22;11564;50.920;11.612;2023-01-30T02:01:01;-0.20;99.90
22795;DHT22;11564;50.920;11.612;2023-01-30T02:03:29;-0.20;99.90
22795;DHT22;11564;50.920;11.612;2023-01-30T02:05:58;-0.20;99.90
22795;DHT22;11564;50.920;11.612;2023-01-30T02:08:38;-0.10;99.90
22795;DHT22;11564;50.920;11.612;2023-01-30T02:11:23;-0.10;99.90
22795;DHT22;11564;50.920;11.612;2023-01-30T02:13:51;0.00;99.90
22795;DHT22;11564;50.920;11.612;2023-01-30T02:16:17;0.00;99.90
22795;DHT22;11564;50.920;11.612;2023-01-30T02:18:43;0.00;99.90
22795;DHT22;11564;50.920;11.612;2023-01-30T02:24:35;0.10;99.90
22795;DHT22;11564;50.920;11.612;2023-01-30T02:33:12;0.10;99.90
22795;DHT22;11564;50.920;11.612;2023-01-30T02:36:26;0.20;99.90
22795;DHT22;11564;50.920;11.612;2023-01-30T02:39:19;0.20;99.90
22795;DHT22;11564;50.920;11.612;2023-01-30T02:47:28;0.30;99.90
22795;DHT22;11564;50.920;11.612;2023-01-30T02:50:01;0.30;99.90
22795;DHT22;11564;50.920;11.612;2023-01-30T02:52:28;0.50;99.90
22795;DHT22;11564;50.920;11.612;2023-01-30T02:54:55;0.50;99.90
22795;DHT22;11564;50.920;11.612;2023-01-30T02:57:22;0.50;99.90
22795;DHT22;11564;50.920;11.612;2023-01-30T02:59:52;0.60;99.90
22795;DHT22;11564;50.920;11.612;2023-01-30T03:02:55;0.50;99.90
22795;DHT22;11564;50.920;11.612;2023-01-30T03:05:47;0.50;99.90
22795;DHT22;11564;50.920;11.612;2023-01-30T03:08:23;0.40;99.90
22795;DHT22;11564;50.920;11.612;2023-01-30T03:11:05;0.50;99.90
22795;DHT22;11564;50.920;11.612;2023-01-30T03:14:08;0.60;99.90
22795;DHT22;11564;50.920;11.612;2023-01-30T03:16:39;0.60;99.90
22795;DHT22;11564;50.920;11.612;2023-01-30T03:19:09;0.60;99.90
22795;DHT22;11564;50.920;11.612;2023-01-30T03:21:43;0.60;99.90
22795;DHT22;11564;50.920;11.612;2023-01-30T03:24:12;0.70;99.90
22795;DHT22;11564;50.920;11.612;2023-01-30T03:26:55;0.60;99.90
22795;DHT22;11564;50.920;11.612;2023-01-30T03:29:21;0.60;99.90
22795;DHT22;11564;50.920;11.612;2023-01-30T03:31:47;0.60;99.90
22795;DHT22;11564;50.920;11.612;2023-01-30T03:34:12;0.60;99.90
22795;DHT22;11564;50.920;11.612;2023-01-30T03:36:38;0.60;99.90
22795;DHT22;11564;50.920;11.612;2023-01-30T03:39:04;0.60;99.90
22795;DHT22;11564;50.920;11.612;2023-01-30T03:41:30;0.50;99.90
22795;DHT22;11564;50.920;11.612;2023-01-30T03:43:55;0.50;99.90
22795;DHT22;11564;50.920;11.612;2023-01-30T03:46:21;0.50;99.90
22795;DHT22;11564;50.920;11.612;2023-01-30T03:48:47;0.50;99.90
22795;DHT22;11564;50.920;11.612;2023-01-30T03:51:12;0.50;99.90
22795;DHT22;11564;50.920;11.612;2023-01-30T03:53:38;0.50;99.90
22795;DHT22;11564;50.920;11.612;2023-01-30T03:56:04;0.60;99.90
22795;DHT22;11564;50.920;11.612;2023-01-30T03:58:30;0.60;99.90
22795;DHT22;11564;50.920;11.612;2023-01-30T04:00:56;0.60;99.90
22795;DHT22;11564;50.920;11.612;2023-01-30T04:03:23;0.70;99.90
22795;DHT22;11564;50.920;11.612;2023-01-30T04:05:48;0.70;99.90
22795;DHT22;11564;50.920;11.612;2023-01-30T04:08:14;0.70;99.90
22795;DHT22;11564;50.920;11.612;2023-01-30T04:10:39;0.80;99.90
22795;DHT22;11564;50.920;11.612;2023-01-30T04:13:05;0.80;99.90
22795;DHT22;11564;50.920;11.612;2023-01-30T04:15:31;0.80;99.90
22795;DHT22;11564;50.920;11.612;2023-01-30T04:17:56;0.80;99.90
22795;DHT22;11564;50.920;11.612;2023-01-30T04:20:21;0.80;99.90
22795;DHT22;11564;50.920;11.612;2023-01-30T04:22:47;0.80;99.90
22795;DHT22;11564;50.920;11.612;2023-01-30T04:25:13;0.80;99.90
22795;DHT22;11564;50.920;11.612;2023-01-30T04:27:38;0.90;99.90
22795;DHT22;11564;50.920;11.612;2023-01-30T04:30:04;0.90;99.90
22795;DHT22;11564;50.920;11.612;2023-01-30T04:32:29;0.90;99.90
22795;DHT22;11564;50.920;11.612;2023-01-30T04:34:55;0.90;99.90
22795;DHT22;11564;50.920;11.612;2023-01-30T04:37:20;0.80;99.90
22795;DHT22;11564;50.920;11.612;2023-01-30T04:39:46;1.00;99.90
22795;DHT22;11564;50.920;11.612;2023-01-30T04:42:11;1.10;99.90
22795;DHT22;11564;50.920;11.612;2023-01-30T04:44:37;1.10;99.90
22795;DHT22;11564;50.920;11.612;2023-01-30T04:47:02;1.20;99.90
22795;DHT22;11564;50.920;11.612;2023-01-30T04:49:28;1.20;99.90
22795;DHT22;11564;50.920;11.612;2023-01-30T04:51:54;1.20;99.90
22795;DHT22;11564;50.920;11.612;2023-01-30T04:54:19;1.30;99.90
22795;DHT22;11564;50.920;11.612;2023-01-30T04:56:45;1.30;99.90
22795;DHT22;11564;50.920;11.612;2023-01-30T04:59:10;1.40;99.90
22795;DHT22;11564;50.920;11.612;2023-01-30T05:01:36;1.40;99.90
22795;DHT22;11564;50.920;11.612;2023-01-30T05:04:02;1.40;99.90
22795;DHT22;11564;50.920;11.612;2023-01-30T05:06:29;1.40;99.90
22795;DHT22;11564;50.920;11.612;2023-01-30T05:08:55;1.50;99.90
22795;DHT22;11564;50.920;11.612;2023-01-30T05:11:21;1.50;99.90
22795;DHT22;11564;50.920;11.612;2023-01-30T05:13:47;1.50;99.90
22795;DHT22;11564;50.920;11.612;2023-01-30T05:16:13;1.60;99.90
22795;DHT22;11564;50.920;11.612;2023-01-30T05:18:38;1.60;99.90
22795;DHT22;11564;50.920;11.612;2023-01-30T05:21:05;1.60;99.90
22795;DHT22;11564;50.920;11.612;2023-01-30T05:23:31;1.60;99.90
22795;DHT22;11564;50.920;11.612;2023-01-30T05:25:57;1.60;99.90
22795;DHT22;11564;50.920;11.612;2023-01-30T05:28:22;1.70;99.90
22795;DHT22;11564;50.920;11.612;2023-01-30T05:30:48;1.60;99.90
22795;DHT22;11564;50.920;11.612;2023-01-30T05:33:13;1.70;99.90
22795;DHT22;11564;50.920;11.612;2023-01-30T05:35:44;1.70;99.90
22795;DHT22;11564;50.920;11.612;2023-01-30T05:38:10;1.70;99.90
22795;DHT22;11564;50.920;11.612;2023-01-30T05:40:35;1.70;99.90
22795;DHT22;11564;50.920;11.612;2023-01-30T05:43:01;1.80;99.90
22795;DHT22;11564;50.920;11.612;2023-01-30T05:45:26;1.70;99.90
22795;DHT22;11564;50.920;11.612;2023-01-30T05:47:52;1.70;99.90
22795;DHT22;11564;50.920;11.612;2023-01-30T05:50:17;1.70;99.90
22795;DHT22;11564;50.920;11.612;2023-01-30T05:52:43;1.70;99.90
22795;DHT22;11564;50.920;11.612;2023-01-30T05:55:08;1.70;99.90
22795;DHT22;11564;50.920;11.612;2023-01-30T05:57:34;1.70;99.90
22795;DHT22;11564;50.920;11.612;2023-01-30T05:59:59;1.60;99.90
22795;DHT22;11564;50.920;11.612;2023-01-30T06:02:25;1.70;99.90
22795;DHT22;11564;50.920;11.612;2023-01-30T06:04:50;1.70;99.90
22795;DHT22;11564;50.920;11.612;2023-01-30T06:07:16;1.70;99.90
22795;DHT22;11564;50.920;11.612;2023-01-30T06:09:41;1.70;99.90
22795;DHT22;11564;50.920;11.612;2023-01-30T06:12:07;1.70;99.90
22795;DHT22;11564;50.920;11.612;2023-01-30T06:14:32;1.70;99.90
22795;DHT22;11564;50.920;11.612;2023-01-30T06:16:58;1.70;99.90
22795;DHT22;11564;50.920;11.612;2023-01-30T06:19:23;1.70;99.90
22795;DHT22;11564;50.920;11.612;2023-01-30T06:21:49;1.80;99.90
22795;DHT22;11564;50.920;11.612;2023-01-30T06:24:14;1.70;99.90
22795;DHT22;11564;50.920;11.612;2023-01-30T06:26:40;1.80;99.90
22795;DHT22;11564;50.920;11.612;2023-01-30T06:29:05;1.80;99.90
22795;DHT22;11564;50.920;11.612;2023-01-30T06:31:31;1.80;99.90
22795;DHT22;11564;50.920;11.612;2023-01-30T06:33:56;1.80;99.90
22795;DHT22;11564;50.920;11.612;2023-01-30T06:36:22;1.90;99.90
22795;DHT22;11564;50.920;11.612;2023-01-30T06:38:47;1.90;99.90
22795;DHT22;11564;50.920;11.612;2023-01-30T06:41:13;1.80;99.90
22795;DHT22;11564;50.920;11.612;2023-01-30T06:43:40;1.80;99.90
22795;DHT22;11564;50.920;11.612;2023-01-30T06:46:05;1.80;99.90
22795;DHT22;11564;50.920;11.612;2023-01-30T06:48:31;1.90;99.90
22795;DHT22;11564;50.920;11.612;2023-01-30T06:50:56;1.90;99.90
22795;DHT22;11564;50.920;11.612;2023-01-30T06:53:22;1.90;99.90
22795;DHT22;11564;50.920;11.612;2023-01-30T06:55:55;2.00;99.90
22795;DHT22;11564;50.920;11.612;2023-01-30T06:58:20;2.10;99.90
22795;DHT22;11564;50.920;11.612;2023-01-30T07:00:46;2.10;99.90
22795;DHT22;11564;50.920;11.612;2023-01-30T07:03:12;2.10;99.90
22795;DHT22;11564;50.920;11.612;2023-01-30T07:05:38;2.10;99.90
22795;DHT22;11564;50.920;11.612;2023-01-30T07:08:04;2.10;99.90
22795;DHT22;11564;50.920;11.612;2023-01-30T07:10:29;2.10;99.90
22795;DHT22;11564;50.920;11.612;2023-01-30T07:12:56;2.10;99.90
22795;DHT22;11564;50.920;11.612;2023-01-30T07:15:22;2.10;99.90
22795;DHT22;11564;50.920;11.612;2023-01-30T07:17:47;2.10;99.90
22795;DHT22;11564;50.920;11.612;2023-01-30T07:20:13;2.20;99.90
22795;DHT22;11564;50.920;11.612;2023-01-30T07:22:39;2.20;99.90
22795;DHT22;11564;50.920;11.612;2023-01-30T07:25:05;2.30;99.90
22795;DHT22;11564;50.920;11.612;2023-01-30T07:27:30;2.30;99.90
22795;DHT22;11564;50.920;11.612;2023-01-30T07:29:56;2.20;99.90
22795;DHT22;11564;50.920;11.612;2023-01-30T07:32:21;2.20;99.90
22795;DHT22;11564;50.920;11.612;2023-01-30T07:34:47;2.20;99.90
22795;DHT22;11564;50.920;11.612;2023-01-30T07:37:13;2.20;99.90
22795;DHT22;11564;50.920;11.612;2023-01-30T07:39:38;2.10;99.90
22795;DHT22;11564;50.920;11.612;2023-01-30T07:42:04;2.20;99.90
22795;DHT22;11564;50.920;11.612;2023-01-30T07:44:30;2.20;99.90
22795;DHT22;11564;50.920;11.612;2023-01-30T07:46:55;2.20;99.90
22795;DHT22;11564;50.920;11.612;2023-01-30T07:49:21;2.20;99.90
22795;DHT22;11564;50.920;11.612;2023-01-30T07:51:46;2.20;99.90
22795;DHT22;11564;50.920;11.612;2023-01-30T07:54:12;2.30;99.90
22795;DHT22;11564;50.920;11.612;2023-01-30T07:56:37;2.20;99.90
22795;DHT22;11564;50.920;11.612;2023-01-30T07:59:03;2.20;99.90
22795;DHT22;11564;50.920;11.612;2023-01-30T08:01:30;2.30;99.90
22795;DHT22;11564;50.920;11.612;2023-01-30T08:03:56;2.30;99.90
22795;DHT22;11564;50.920;11.612;2023-01-30T08:06:21;2.40;99.90
22795;DHT22;11564;50.920;11.612;2023-01-30T08:08:47;2.40;99.90
22795;DHT22;11564;50.920;11.612;2023-01-30T08:11:12;2.40;99.90
22795;DHT22;11564;50.920;11.612;2023-01-30T08:13:38;2.50;99.90
22795;DHT22;11564;50.920;11.612;2023-01-30T08:16:04;2.50;99.90
22795;DHT22;11564;50.920;11.612;2023-01-30T08:18:31;2.50;99.90
22795;DHT22;11564;50.920;11.612;2023-01-30T08:20:57;2.50;99.90
22795;DHT22;11564;50.920;11.612;2023-01-30T08:23:22;2.60;99.90
22795;DHT22;11564;50.920;11.612;2023-01-30T08:25:48;2.70;99.90
22795;DHT22;11564;50.920;11.612;2023-01-30T08:28:13;2.70;99.90
22795;DHT22;11564;50.920;11.612;2023-01-30T08:30:39;2.70;99.90
22795;DHT22;11564;50.920;11.612;2023-01-30T08:33:05;2.80;99.90
22795;DHT22;11564;50.920;11.612;2023-01-30T08:35:30;2.80;99.90
22795;DHT22;11564;50.920;11.612;2023-01-30T08:37:56;2.80;99.90
22795;DHT22;11564;50.920;11.612;2023-01-30T08:40:21;2.80;99.90
22795;DHT22;11564;50.920;11.612;2023-01-30T08:42:47;2.90;99.90
22795;DHT22;11564;50.920;11.612;2023-01-30T08:45:12;2.90;99.90
22795;DHT22;11564;50.920;11.612;2023-01-30T08:47:38;2.90;99.90
22795;DHT22;11564;50.920;11.612;2023-01-30T08:50:04;3.00;99.90
22795;DHT22;11564;50.920;11.612;2023-01-30T08:52:31;3.00;99.90
22795;DHT22;11564;50.920;11.612;2023-01-30T08:54:56;3.10;99.90
22795;DHT22;11564;50.920;11.612;2023-01-30T08:57:22;3.30;99.90
22795;DHT22;11564;50.920;11.612;2023-01-30T08:59:47;3.30;99.90
22795;DHT22;11564;50.920;11.612;2023-01-30T09:02:15;3.30;99.90
22795;DHT22;11564;50.920;11.612;2023-01-30T09:04:41;3.20;99.90
22795;DHT22;11564;50.920;11.612;2023-01-30T09:07:06;3.20;99.90
22795;DHT22;11564;50.920;11.612;2023-01-30T09:09:32;3.20;99.90
22795;DHT22;11564;50.920;11.612;2023-01-30T09:11:58;3.30;99.90
22795;DHT22;11564;50.920;11.612;2023-01-30T09:14:23;3.20;99.90
22795;DHT22;11564;50.920;11.612;2023-01-30T09:16:49;3.20;99.90
22795;DHT22;11564;50.920;11.612;2023-01-30T09:19:24;3.20;99.90
22795;DHT22;11564;50.920;11.612;2023-01-30T09:21:50;3.20;99.90
22795;DHT22;11564;50.920;11.612;2023-01-30T09:24:16;3.30;99.90
22795;DHT22;11564;50.920;11.612;2023-01-30T09:26:42;3.30;99.90
22795;DHT22;11564;50.920;11.612;2023-01-30T09:29:12;3.40;99.90
22795;DHT22;11564;50.920;11.612;2023-01-30T09:31:37;3.20;99.90
22795;DHT22;11564;50.920;11.612;2023-01-30T09:34:03;3.20;99.90
22795;DHT22;11564;50.920;11.612;2023-01-30T09:36:29;3.00;99.90
22795;DHT22;11564;50.920;11.612;2023-01-30T09:38:54;3.10;99.90
22795;DHT22;11564;50.920;11.612;2023-01-30T09:49:33;3.60;99.90
22795;DHT22;11564;50.920;11.612;2023-01-30T09:52:07;3.80;99.90
22795;DHT22;11564;50.920;11.612;2023-01-30T09:54:39;3.70;99.90
22795;DHT22;11564;50.920;11.612;2023-01-30T09:57:09;3.70;99.90
22795;DHT22;11564;50.920;11.612;2023-01-30T09:59:44;3.70;99.90
22795;DHT22;11564;50.920;11.612;2023-01-30T10:04:38;3.50;99.90
22795;DHT22;11564;50.920;11.612;2023-01-30T10:07:14;3.50;99.90
22795;DHT22;11564;50.920;11.612;2023-01-30T10:12:22;3.60;99.90
22795;DHT22;11564;50.920;11.612;2023-01-30T10:19:58;3.60;99.90
22795;DHT22;11564;50.920;11.612;2023-01-30T10:27:18;3.70;99.90
22795;DHT22;11564;50.920;11.612;2023-01-30T10:29:48;3.70;99.90
22795;DHT22;11564;50.920;11.612;2023-01-30T10:32:17;3.90;99.90
22795;DHT22;11564;50.920;11.612;2023-01-30T10:34:48;4.10;99.90
22795;DHT22;11564;50.920;11.612;2023-01-30T10:45:32;3.30;99.90
22795;DHT22;11564;50.920;11.612;2023-01-30T10:53:15;3.50;99.90
22795;DHT22;11564;50.920;11.612;2023-01-30T10:55:50;3.70;99.90
22795;DHT22;11564;50.920;11.612;2023-01-30T11:00:44;3.90;99.90
22795;DHT22;11564;50.920;11.612;2023-01-30T11:05:40;4.00;99.90
22795;DHT22;11564;50.920;11.612;2023-01-30T11:08:24;4.10;99.90
22795;DHT22;11564;50.920;11.612;2023-01-30T11:10:50;4.20;99.90
22795;DHT22;11564;50.920;11.612;2023-01-30T11:13:17;4.40;99.90
22795;DHT22;11564;50.920;11.612;2023-01-30T11:15:43;4.50;99.90
22795;DHT22;11564;50.920;11.612;2023-01-30T11:18:09;4.40;99.90
22795;DHT22;11564;50.920;11.612;2023-01-30T11:20:40;4.20;99.90
22795;DHT22;11564;50.920;11.612;2023-01-30T11:23:07;4.10;99.90
22795;DHT22;11564;50.920;11.612;2023-01-30T11:28:49;4.00;99.90
22795;DHT22;11564;50.920;11.612;2023-01-30T11:31:19;3.90;99.90
22795;DHT22;11564;50.920;11.612;2023-01-30T11:33:45;3.90;99.90
22795;DHT22;11564;50.920;11.612;2023-01-30T11:36:24;3.80;99.90
22795;DHT22;11564;50.920;11.612;2023-01-30T11:39:00;3.70;99.90
22795;DHT22;11564;50.920;11.612;2023-01-30T11:41:27;3.60;99.90
22795;DHT22;11564;50.920;11.612;2023-01-30T11:43:58;3.60;99.90
22795;DHT22;11564;50.920;11.612;2023-01-30T11:46:24;3.60;99.90
22795;DHT22;11564;50.920;11.612;2023-01-30T11:48:53;3.70;99.90
22795;DHT22;11564;50.920;11.612;2023-01-30T11:51:20;3.80;99.90
22795;DHT22;11564;50.920;11.612;2023-01-30T11:53:48;4.00;99.90
22795;DHT22;11564;50.920;11.612;2023-01-30T11:56:22;4.20;99.90
22795;DHT22;11564;50.920;11.612;2023-01-30T11:58:53;4.50;99.90
22795;DHT22;11564;50.920;11.612;2023-01-30T12:01:24;5.10;99.90
22795;DHT22;11564;50.920;11.612;2023-01-30T12:03:50;5.20;99.90
22795;DHT22;11564;50.920;11.612;2023-01-30T12:06:21;5.30;99.90
22795;DHT22;11564;50.920;11.612;2023-01-30T12:08:50;5.40;99.90
22795;DHT22;11564;50.920;11.612;2023-01-30T12:11:23;5.50;99.90
22795;DHT22;11564;50.920;11.612;2023-01-30T12:13:49;5.50;99.90
22795;DHT22;11564;50.920;11.612;2023-01-30T12:16:18;5.10;99.90
22795;DHT22;11564;50.920;11.612;2023-01-30T12:24:10;5.00;99.90
22795;DHT22;11564;50.920;11.612;2023-01-30T12:26:50;5.30;99.90
22795;DHT22;11564;50.920;11.612;2023-01-30T12:29:23;5.80;99.90
22795;DHT22;11564;50.920;11.612;2023-01-30T12:34:21;4.90;99.90
22795;DHT22;11564;50.920;11.612;2023-01-30T12:36:50;4.60;99.90
22795;DHT22;11564;50.920;11.612;2023-01-30T12:58:09;5.40;99.90
22795;DHT22;11564;50.920;11.612;2023-01-30T13:10:14;5.90;99.90
22795;DHT22;11564;50.920;11.612;2023-01-30T13:13:06;7.00;99.90
22795;DHT22;11564;50.920;11.612;2023-01-30T13:15:36;8.60;99.90
22795;DHT22;11564;50.920;11.612;2023-01-30T13:18:49;8.80;99.90
22795;DHT22;11564;50.920;11.612;2023-01-30T13:20:54;6.80;99.90
22795;DHT22;11564;50.920;11.612;2023-01-30T13:26:03;5.40;99.90
22795;DHT22;11564;50.920;11.612;2023-01-30T13:28:34;5.40;99.90
22795;DHT22;11564;50.920;11.612;2023-01-30T13:31:00;5.90;99.90
22795;DHT22;11564;50.920;11.612;2023-01-30T13:33:33;7.40;99.90
22795;DHT22;11564;50.920;11.612;2023-01-30T13:36:02;7.40;99.90
22795;DHT22;11564;50.920;11.612;2023-01-30T13:38:30;7.40;99.90
22795;DHT22;11564;50.920;11.612;2023-01-30T13:40:56;8.00;99.90
22795;DHT22;11564;50.920;11.612;2023-01-30T13:43:30;6.70;99.90
22795;DHT22;11564;50.920;11.612;2023-01-30T13:45:59;5.70;99.90
22795;DHT22;11564;50.920;11.612;2023-01-30T13:56:46;5.40;99.90
22795;DHT22;11564;50.920;11.612;2023-01-30T14:07:06;5.90;99.90
22795;DHT22;11564;50.920;11.612;2023-01-30T14:09:32;6.30;99.90
22795;DHT22;11564;50.920;11.612;2023-01-30T14:11:59;6.30;99.90
22795;DHT22;11564;50.920;11.612;2023-01-30T14:14:26;5.70;99.90
22795;DHT22;11564;50.920;11.612;2023-01-30T14:16:54;5.30;99.90
22795;DHT22;11564;50.920;11.612;2023-01-30T14:21:55;5.20;99.90
22795;DHT22;11564;50.920;11.612;2023-01-30T14:24:21;5.00;99.90
22795;DHT22;11564;50.920;11.612;2023-01-30T14:26:58;5.00;99.90
22795;DHT22;11564;50.920;11.612;2023-01-30T14:32:06;5.00;99.90
22795;DHT22;11564;50.920;11.612;2023-01-30T14:39:59;4.70;99.90
22795;DHT22;11564;50.920;11.612;2023-01-30T14:42:28;4.90;99.90
22795;DHT22;11564;50.920;11.612;2023-01-30T14:47:30;4.70;99.90
22795;DHT22;11564;50.920;11.612;2023-01-30T14:49:56;4.60;99.90
22795;DHT22;11564;50.920;11.612;2023-01-30T14:52:30;4.60;99.90
22795;DHT22;11564;50.920;11.612;2023-01-30T14:54:57;4.60;99.90
22795;DHT22;11564;50.920;11.612;2023-01-30T14:57:24;4.70;99.90
22795;DHT22;11564;50.920;11.612;2023-01-30T15:00:14;4.70;99.90
22795;DHT22;11564;50.920;11.612;2023-01-30T15:02:41;4.80;99.90
22795;DHT22;11564;50.920;11.612;2023-01-30T15:05:18;4.70;99.90
22795;DHT22;11564;50.920;11.612;2023-01-30T15:07:56;4.70;99.90
22795;DHT22;11564;50.920;11.612;2023-01-30T15:15:25;4.60;99.90
22795;DHT22;11564;50.920;11.612;2023-01-30T15:18:02;4.60;99.90
22795;DHT22;11564;50.920;11.612;2023-01-30T15:23:10;4.40;99.90
22795;DHT22;11564;50.920;11.612;2023-01-30T15:28:30;4.30;99.90
22795;DHT22;11564;50.920;11.612;2023-01-30T15:33:52;4.40;99.90
22795;DHT22;11564;50.920;11.612;2023-01-30T15:38:44;4.50;99.90
22795;DHT22;11564;50.920;11.612;2023-01-30T15:41:09;4.50;99.90
22795;DHT22;11564;50.920;11.612;2023-01-30T15:46:15;4.50;99.90
22795;DHT22;11564;50.920;11.612;2023-01-30T15:51:25;4.50;99.90
22795;DHT22;11564;50.920;11.612;2023-01-30T15:53:51;4.50;99.90
22795;DHT22;11564;50.920;11.612;2023-01-30T15:56:19;4.40;99.90
22795;DHT22;11564;50.920;11.612;2023-01-30T15:58:45;4.40;99.90
22795;DHT22;11564;50.920;11.612;2023-01-30T16:01:11;4.40;99.90
22795;DHT22;11564;50.920;11.612;2023-01-30T16:03:41;4.40;99.90
22795;DHT22;11564;50.920;11.612;2023-01-30T16:06:20;4.40;99.90
22795;DHT22;11564;50.920;11.612;2023-01-30T16:08:53;4.40;99.90
22795;DHT22;11564;50.920;11.612;2023-01-30T16:11:31;4.40;99.90
22795;DHT22;11564;50.920;11.612;2023-01-30T16:13:56;4.30;99.90
22795;DHT22;11564;50.920;11.612;2023-01-30T16:16:22;4.20;99.90
22795;DHT22;11564;50.920;11.612;2023-01-30T16:18:48;4.20;99.90
22795;DHT22;11564;50.920;11.612;2023-01-30T16:21:18;4.20;99.90
22795;DHT22;11564;50.920;11.612;2023-01-30T16:23:55;4.20;99.90
22795;DHT22;11564;50.920;11.612;2023-01-30T16:26:24;4.20;99.90
22795;DHT22;11564;50.920;11.612;2023-01-30T16:28:49;4.20;99.90
22795;DHT22;11564;50.920;11.612;2023-01-30T16:31:16;4.20;99.90
22795;DHT22;11564;50.920;11.612;2023-01-30T16:33:48;4.10;99.90
22795;DHT22;11564;50.920;11.612;2023-01-30T16:38:46;4.00;99.90
22795;DHT22;11564;50.920;11.612;2023-01-30T16:46:51;4.00;99.90
22795;DHT22;11564;50.920;11.612;2023-01-30T16:52:18;4.00;99.90
22795;DHT22;11564;50.920;11.612;2023-01-30T16:54:52;4.00;99.90
22795;DHT22;11564;50.920;11.612;2023-01-30T16:57:32;4.00;99.90
22795;DHT22;11564;50.920;11.612;2023-01-30T17:00:03;3.90;99.90
22795;DHT22;11564;50.920;11.612;2023-01-30T17:02:40;3.90;99.90
22795;DHT22;11564;50.920;11.612;2023-01-30T17:05:17;3.80;99.90
22795;DHT22;11564;50.920;11.612;2023-01-30T17:07:44;3.80;99.90
22795;DHT22;11564;50.920;11.612;2023-01-30T17:12:54;3.70;99.90
22795;DHT22;11564;50.920;11.612;2023-01-30T17:17:45;3.60;99.90
22795;DHT22;11564;50.920;11.612;2023-01-30T17:20:11;3.70;99.90
22795;DHT22;11564;50.920;11.612;2023-01-30T17:22:38;3.70;99.90
22795;DHT22;11564;50.920;11.612;2023-01-30T17:25:05;3.60;99.90
22795;DHT22;11564;50.920;11.612;2023-01-30T17:27:31;3.60;99.90
22795;DHT22;11564;50.920;11.612;2023-01-30T17:29:58;3.60;99.90
22795;DHT22;11564;50.920;11.612;2023-01-30T17:32:23;3.50;99.90
22795;DHT22;11564;50.920;11.612;2023-01-30T17:34:49;3.50;99.90
22795;DHT22;11564;50.920;11.612;2023-01-30T17:37:15;3.50;99.90
22795;DHT22;11564;50.920;11.612;2023-01-30T17:39:40;3.50;99.90
22795;DHT22;11564;50.920;11.612;2023-01-30T17:42:09;3.50;99.90
22795;DHT22;11564;50.920;11.612;2023-01-30T17:44:35;3.60;99.90
22795;DHT22;11564;50.920;11.612;2023-01-30T17:47:00;3.60;99.90
22795;DHT22;11564;50.920;11.612;2023-01-30T17:49:26;3.70;99.90
22795;DHT22;11564;50.920;11.612;2023-01-30T17:51:52;3.70;99.90
22795;DHT22;11564;50.920;11.612;2023-01-30T17:54:18;3.60;99.90
22795;DHT22;11564;50.920;11.612;2023-01-30T17:56:47;3.60;99.90
22795;DHT22;11564;50.920;11.612;2023-01-30T17:59:17;3.60;99.90
22795;DHT22;11564;50.920;11.612;2023-01-30T18:01:44;3.50;99.90
22795;DHT22;11564;50.920;11.612;2023-01-30T18:04:09;3.50;99.90
22795;DHT22;11564;50.920;11.612;2023-01-30T18:06:35;3.50;99.90
22795;DHT22;11564;50.920;11.612;2023-01-30T18:09:02;3.50;99.90
22795;DHT22;11564;50.920;11.612;2023-01-30T18:11:27;3.50;99.90
22795;DHT22;11564;50.920;11.612;2023-01-30T18:13:53;3.50;99.90
22795;DHT22;11564;50.920;11.612;2023-01-30T18:16:23;3.50;99.90
22795;DHT22;11564;50.920;11.612;2023-01-30T18:18:49;3.50;99.90
22795;DHT22;11564;50.920;11.612;2023-01-30T18:21:15;3.50;99.90
22795;DHT22;11564;50.920;11.612;2023-01-30T18:23:40;3.50;99.90